Time;durP1;ratioP1;P1;durP2;ratioP2;P2;SDS_P1;SDS_P2;PMS_P1;PMS_P2;Temp;Humidity;BMP_temperature;BMP_pressure;BME280_temperature;BME280_humidity;BME280_pressure;Samples;Min_cycle;Max_cycle;Signal;HPM_P1;HPM_P2
2022/06/20 00:01:19;;;;;;;5.83;1.23;;;15.10;99.90;;;;;;5051909;28;20205;-54
2022/06/20 00:03:48;;;;;;;3.27;1.27;;;15.20;99.90;;;;;;5043842;28;20291;-54
2022/06/20 00:06:20;;;;;;;7.27;1.30;;;15.20;99.90;;;;;;5047030;28;20217;-54
2022/06/20 00:08:51;;;;;;;4.43;1.60;;;15.00;99.90;;;;;;5048119;28;20197;-53
2022/06/20 00:11:28;;;;;;;6.23;1.80;;;15.10;99.90;;;;;;5046008;28;20217;-54
2022/06/20 00:13:56;;;;;;;2.80;1.17;;;15.10;99.90;;;;;;5035872;28;20284;-55
2022/06/20 00:16:23;;;;;;;4.10;1.20;;;15.30;99.90;;;;;;5045832;28;20316;-55
2022/06/20 00:18:51;;;;;;;5.80;1.37;;;15.20;99.90;;;;;;5047008;28;20676;-55
2022/06/20 00:21:20;;;;;;;4.17;1.23;;;15.20;99.90;;;;;;5045687;28;20690;-56
2022/06/20 00:23:48;;;;;;;6.30;1.27;;;15.30;99.90;;;;;;5047023;28;20284;-56
2022/06/20 00:26:15;;;;;;;4.47;1.40;;;15.20;99.90;;;;;;5047144;28;20314;-54
2022/06/20 00:28:43;;;;;;;3.37;0.90;;;15.30;99.90;;;;;;5041985;28;20682;-54
2022/06/20 00:31:10;;;;;;;4.13;1.30;;;15.20;99.90;;;;;;5045068;28;20602;-54
2022/06/20 00:33:38;;;;;;;5.90;1.37;;;15.30;99.90;;;;;;5049153;28;20599;-54
2022/06/20 00:36:05;;;;;;;4.80;1.47;;;15.50;99.90;;;;;;5053368;28;20434;-54
2022/06/20 00:38:36;;;;;;;4.50;1.10;;;15.40;99.90;;;;;;5053555;28;21429;-55
2022/06/20 00:41:09;;;;;;;6.50;1.30;;;15.30;99.90;;;;;;5050601;28;20221;-54
2022/06/20 00:43:45;;;;;;;3.33;1.13;;;15.20;99.90;;;;;;5051385;28;20306;-55
2022/06/20 00:46:22;;;;;;;6.70;1.27;;;15.40;99.90;;;;;;5048736;28;20226;-55
2022/06/20 00:48:55;;;;;;;5.23;1.30;;;15.50;99.90;;;;;;5048534;28;20226;-55
2022/06/20 00:51:43;;;;;;;5.33;1.83;;;15.50;99.90;;;;;;5043536;28;20870;-55
2022/06/20 00:54:22;;;;;;;4.70;1.37;;;15.50;99.90;;;;;;5050033;28;20267;-56
2022/06/20 00:56:55;;;;;;;5.17;1.27;;;15.50;99.90;;;;;;5035138;28;20761;-55
2022/06/20 00:59:29;;;;;;;3.83;1.00;;;15.40;99.90;;;;;;5046211;28;20221;-54
2022/06/20 01:01:58;;;;;;;4.47;1.00;;;15.20;99.90;;;;;;5048672;28;20222;-55
2022/06/20 01:04:35;;;;;;;3.90;1.20;;;15.10;99.90;;;;;;5047968;28;20313;-57
2022/06/20 01:07:06;;;;;;;5.87;1.33;;;15.10;99.90;;;;;;5049476;28;20843;-54
2022/06/20 01:09:39;;;;;;;4.47;1.20;;;15.10;99.90;;;;;;5053792;28;20198;-55
2022/06/20 01:12:13;;;;;;;6.10;1.40;;;15.30;99.90;;;;;;5043406;28;20282;-54
2022/06/20 01:14:41;;;;;;;2.03;1.00;;;15.30;99.90;;;;;;5049558;28;20200;-55
2022/06/20 01:17:15;;;;;;;5.00;1.10;;;15.40;99.90;;;;;;5046441;28;20237;-55
2022/06/20 01:20:04;;;;;;;5.70;1.00;;;15.50;99.90;;;;;;5048180;28;20259;-55
2022/06/20 01:22:40;;;;;;;7.10;1.50;;;15.60;99.90;;;;;;5036844;28;20208;-55
2022/06/20 01:25:42;;;;;;;5.83;1.30;;;15.60;99.90;;;;;;5061994;28;20301;-55
2022/06/20 01:28:20;;;;;;;3.47;1.20;;;15.70;99.90;;;;;;5019579;28;20206;-55
2022/06/20 01:30:47;;;;;;;6.40;1.43;;;15.70;99.90;;;;;;5048086;28;20558;-55
2022/06/20 01:33:18;;;;;;;5.70;1.47;;;15.70;99.90;;;;;;5042459;28;20355;-55
2022/06/20 01:38:37;;;;;;;4.03;1.60;;;15.70;99.90;;;;;;5050721;28;20575;-56
2022/06/20 01:43:53;;;;;;;6.33;1.57;;;15.50;99.90;;;;;;5046461;28;20260;-55
2022/06/20 01:46:25;;;;;;;3.10;1.37;;;15.60;99.90;;;;;;5064335;28;20223;-56
2022/06/20 01:48:55;;;;;;;7.17;1.30;;;15.60;99.90;;;;;;5046436;28;20226;-54
2022/06/20 01:51:40;;;;;;;6.40;2.23;;;15.60;99.90;;;;;;5047432;28;20610;-55
2022/06/20 01:54:09;;;;;;;4.87;1.60;;;15.40;99.90;;;;;;5049095;28;20311;-55
2022/06/20 01:56:38;;;;;;;2.90;0.93;;;15.40;99.90;;;;;;5051099;28;20229;-55
2022/06/20 01:59:17;;;;;;;3.73;1.10;;;15.40;99.90;;;;;;5050743;28;20206;-55
2022/06/20 02:01:50;;;;;;;6.60;1.20;;;15.40;99.90;;;;;;5049768;28;20684;-55
2022/06/20 02:04:21;;;;;;;6.53;1.10;;;15.50;99.90;;;;;;5049676;28;20200;-55
2022/06/20 02:06:48;;;;;;;5.37;1.87;;;15.30;99.90;;;;;;5048082;28;20737;-55
2022/06/20 02:09:15;;;;;;;2.60;0.80;;;15.30;99.90;;;;;;5048463;28;20385;-55
2022/06/20 02:11:45;;;;;;;5.37;1.27;;;15.40;99.90;;;;;;5046764;28;20619;-54
2022/06/20 02:14:19;;;;;;;5.83;1.53;;;15.50;99.90;;;;;;5047346;28;20650;-54
2022/06/20 02:16:57;;;;;;;3.53;1.10;;;15.50;99.90;;;;;;5036338;28;20293;-55
2022/06/20 02:19:30;;;;;;;4.77;1.17;;;15.60;99.90;;;;;;5047338;28;20727;-55
2022/06/20 02:22:03;;;;;;;5.40;1.23;;;15.40;99.90;;;;;;5045786;28;20205;-55
2022/06/20 02:24:43;;;;;;;5.23;1.17;;;15.20;99.90;;;;;;5049092;28;20207;-54
2022/06/20 02:27:20;;;;;;;8.97;1.40;;;15.00;99.90;;;;;;5047787;28;20238;-55
2022/06/20 02:29:47;;;;;;;4.50;1.07;;;14.90;99.90;;;;;;5045919;28;20201;-55
2022/06/20 02:32:27;;;;;;;6.40;1.30;;;15.00;99.90;;;;;;5042227;28;20255;-55
2022/06/20 02:34:57;;;;;;;4.93;2.03;;;15.00;99.90;;;;;;5048131;28;20201;-54
2022/06/20 02:37:26;;;;;;;5.30;1.37;;;15.10;99.90;;;;;;5049558;28;20252;-55
2022/06/20 02:39:58;;;;;;;4.17;1.40;;;15.10;99.90;;;;;;5051733;28;20232;-54
2022/06/20 02:42:39;;;;;;;5.37;1.70;;;14.90;99.90;;;;;;5055620;28;20259;-55
2022/06/20 02:45:11;;;;;;;4.37;1.40;;;14.80;99.90;;;;;;5050448;28;20290;-54
2022/06/20 02:47:41;;;;;;;5.17;1.67;;;14.80;99.90;;;;;;5053274;28;20284;-54
2022/06/20 02:50:11;;;;;;;3.80;1.40;;;14.90;99.90;;;;;;5052014;28;20221;-54
2022/06/20 02:53:05;;;;;;;7.30;1.90;;;14.90;99.90;;;;;;5051980;28;20205;-55
2022/06/20 02:55:34;;;;;;;5.73;1.70;;;14.70;99.90;;;;;;5035209;28;20324;-55
2022/06/20 02:58:13;;;;;;;7.00;2.03;;;14.80;99.90;;;;;;5056543;28;20250;-55
2022/06/20 03:00:48;;;;;;;3.70;1.50;;;14.60;99.90;;;;;;5054616;28;20196;-55
2022/06/20 03:03:28;;;;;;;7.20;1.60;;;14.80;99.90;;;;;;5053193;28;20204;-55
2022/06/20 03:05:56;;;;;;;8.27;1.63;;;14.60;99.90;;;;;;5053628;28;20902;-55
2022/06/20 03:08:24;;;;;;;6.43;1.30;;;14.80;99.90;;;;;;5052714;28;20456;-55
2022/06/20 03:10:53;;;;;;;3.73;1.43;;;14.80;99.90;;;;;;5049793;28;20232;-57
2022/06/20 03:13:22;;;;;;;4.53;1.50;;;14.90;99.90;;;;;;5048458;28;20227;-55
2022/06/20 03:15:52;;;;;;;4.70;1.53;;;14.70;99.90;;;;;;5051747;28;20757;-55
2022/06/20 03:18:22;;;;;;;6.77;1.80;;;14.60;99.90;;;;;;5055940;28;20263;-54
2022/06/20 03:20:52;;;;;;;4.93;2.73;;;14.50;99.90;;;;;;5054983;28;20603;-55
2022/06/20 03:23:24;;;;;;;3.17;1.73;;;14.50;99.90;;;;;;5052540;28;20201;-55
2022/06/20 03:25:52;;;;;;;5.20;1.53;;;14.60;99.90;;;;;;5054493;28;20221;-55
2022/06/20 03:28:21;;;;;;;7.37;1.87;;;14.60;99.90;;;;;;5054703;28;20211;-54
2022/06/20 03:31:09;;;;;;;5.57;1.67;;;14.70;99.90;;;;;;5051423;28;20220;-54
2022/06/20 03:33:38;;;;;;;5.67;1.80;;;14.70;99.90;;;;;;5050250;28;20206;-55
2022/06/20 03:36:19;;;;;;;6.07;1.70;;;14.90;99.90;;;;;;5050791;28;20575;-55
2022/06/20 03:38:47;;;;;;;7.33;1.90;;;14.90;99.90;;;;;;5046982;28;20690;-54
2022/06/20 03:41:17;;;;;;;7.47;2.00;;;14.90;99.90;;;;;;5047323;28;20207;-54
2022/06/20 03:43:50;;;;;;;8.33;1.53;;;15.00;99.90;;;;;;5049170;28;20207;-55
2022/06/20 03:46:31;;;;;;;6.60;1.93;;;15.00;99.90;;;;;;5048406;28;20225;-54
2022/06/20 03:49:06;;;;;;;6.43;1.30;;;14.90;99.90;;;;;;5037497;28;20631;-57
2022/06/20 03:51:47;;;;;;;6.37;1.60;;;14.80;99.90;;;;;;5050384;28;20215;-54
2022/06/20 03:54:26;;;;;;;4.63;1.47;;;14.70;99.90;;;;;;5049926;28;20199;-54
2022/06/20 03:57:11;;;;;;;7.97;1.77;;;14.70;99.90;;;;;;5049093;28;20738;-54
2022/06/20 03:59:45;;;;;;;5.80;1.90;;;14.60;99.90;;;;;;5058280;28;20732;-55
2022/06/20 04:02:42;;;;;;;5.03;1.80;;;14.70;99.90;;;;;;5048386;28;20333;-54
2022/06/20 04:05:27;;;;;;;5.83;1.60;;;14.80;99.90;;;;;;5011808;28;20216;-54
2022/06/20 04:08:06;;;;;;;5.23;1.70;;;14.90;99.90;;;;;;5050027;28;20722;-55
2022/06/20 04:11:01;;;;;;;5.17;1.97;;;15.00;99.90;;;;;;5045109;28;20680;-54
2022/06/20 04:13:56;;;;;;;4.57;1.77;;;14.90;99.90;;;;;;5044899;28;20208;-55
2022/06/20 04:18:27;;;;;;;5.87;1.47;;;14.90;99.90;;;;;;5048867;28;20220;-55
2022/06/20 04:19:51;;;;;;;4.47;1.50;;;15.00;99.90;;;;;;5041084;28;20653;-53
2022/06/20 04:22:23;;;;;;;4.10;1.50;;;15.00;99.90;;;;;;5048820;28;20262;-55
2022/06/20 04:24:57;;;;;;;6.13;1.70;;;14.90;99.90;;;;;;5047015;28;20260;-55
2022/06/20 04:27:35;;;;;;;5.23;1.63;;;14.80;99.90;;;;;;5047502;28;20369;-56
2022/06/20 04:30:24;;;;;;;7.57;1.73;;;14.90;99.90;;;;;;5047397;28;20265;-56
2022/06/20 04:33:00;;;;;;;5.87;1.30;;;15.00;99.90;;;;;;5045773;28;20221;-55
2022/06/20 04:35:35;;;;;;;4.43;1.40;;;15.20;99.90;;;;;;5047299;28;20824;-55
2022/06/20 04:38:22;;;;;;;4.07;1.40;;;15.00;99.90;;;;;;5033099;28;20202;-56
2022/06/20 04:41:05;;;;;;;4.33;1.23;;;14.90;99.90;;;;;;5045761;28;20310;-56
2022/06/20 04:43:49;;;;;;;6.73;1.53;;;15.10;99.90;;;;;;5046533;28;20210;-55
2022/06/20 04:46:26;;;;;;;4.20;1.43;;;15.20;99.90;;;;;;5053006;28;20253;-55
2022/06/20 04:48:53;;;;;;;5.13;1.53;;;15.30;99.90;;;;;;5044898;28;20268;-56
2022/06/20 04:51:32;;;;;;;5.30;1.40;;;15.20;99.90;;;;;;5051081;28;20244;-55
2022/06/20 04:53:59;;;;;;;3.30;1.27;;;15.20;99.90;;;;;;5053121;28;20212;-56
2022/06/20 04:56:27;;;;;;;6.20;1.33;;;15.10;99.90;;;;;;5053057;28;20245;-55
2022/06/20 04:59:06;;;;;;;3.27;1.20;;;15.10;99.90;;;;;;5049364;28;20211;-56
2022/06/20 05:01:35;;;;;;;4.03;1.17;;;15.10;99.90;;;;;;5046314;28;20288;-54
2022/06/20 05:04:35;;;;;;;4.27;1.10;;;15.10;99.90;;;;;;5049060;28;20205;-55
2022/06/20 05:07:07;;;;;;;6.70;1.30;;;15.10;99.90;;;;;;5063233;28;20683;-55
2022/06/20 05:09:49;;;;;;;2.10;1.27;;;15.00;99.90;;;;;;5055603;28;20710;-55
2022/06/20 05:12:25;;;;;;;5.03;1.50;;;15.20;99.90;;;;;;5036490;28;20205;-55
2022/06/20 05:15:11;;;;;;;2.40;1.10;;;15.00;99.90;;;;;;5053681;28;20231;-55
2022/06/20 05:17:41;;;;;;;3.83;1.13;;;15.20;99.90;;;;;;5055433;28;20235;-56
2022/06/20 05:20:28;;;;;;;5.57;1.37;;;15.20;99.90;;;;;;5047650;28;20337;-55
2022/06/20 05:23:23;;;;;;;1.93;1.00;;;15.20;99.90;;;;;;5048599;28;20692;-55
2022/06/20 05:25:51;;;;;;;5.70;1.67;;;15.40;99.90;;;;;;5053650;28;20246;-55
2022/06/20 05:28:22;;;;;;;6.00;1.30;;;15.60;99.90;;;;;;5052907;28;20672;-55
2022/06/20 05:30:49;;;;;;;5.03;1.77;;;15.40;99.90;;;;;;5053891;28;20673;-55
2022/06/20 05:33:48;;;;;;;3.20;1.20;;;15.50;99.90;;;;;;5042418;28;20209;-54
2022/06/20 05:36:34;;;;;;;3.63;1.50;;;15.20;99.90;;;;;;5040802;28;20280;-55
2022/06/20 05:39:15;;;;;;;4.33;1.20;;;15.20;99.90;;;;;;5052554;28;20251;-55
2022/06/20 05:41:43;;;;;;;5.43;1.70;;;15.10;99.90;;;;;;5050314;28;20204;-55
2022/06/20 05:44:13;;;;;;;4.03;1.23;;;15.20;99.90;;;;;;5046481;28;20290;-54
2022/06/20 05:46:55;;;;;;;3.07;1.40;;;15.20;99.90;;;;;;5064050;28;20224;-55
2022/06/20 05:49:30;;;;;;;2.83;2.03;;;15.30;99.90;;;;;;5043388;28;20222;-54
2022/06/20 05:51:59;;;;;;;7.37;1.60;;;15.30;99.90;;;;;;5051438;28;20237;-55
2022/06/20 05:54:34;;;;;;;5.17;1.40;;;15.40;99.90;;;;;;5052795;28;20192;-55
2022/06/20 05:57:08;;;;;;;5.00;1.40;;;15.30;99.90;;;;;;5045673;28;20708;-57
2022/06/20 06:00:00;;;;;;;4.00;1.20;;;15.20;99.90;;;;;;5039881;28;20198;-55
2022/06/20 06:02:35;;;;;;;3.13;1.27;;;15.50;99.90;;;;;;5039659;28;20646;-54
2022/06/20 06:05:25;;;;;;;7.43;1.20;;;15.60;99.90;;;;;;5047137;28;20234;-55
2022/06/20 06:08:04;;;;;;;2.47;1.10;;;15.70;99.90;;;;;;5028427;28;20243;-55
2022/06/20 06:10:52;;;;;;;3.67;1.60;;;16.10;99.90;;;;;;5032756;28;20611;-55
2022/06/20 06:13:42;;;;;;;2.23;1.53;;;16.20;24.40;;;;;;5050941;28;20229;-55
2022/06/20 06:19:25;;;;;;;4.83;1.40;;;16.20;10.60;;;;;;5036650;28;20206;-54
2022/06/20 06:21:53;;;;;;;4.67;1.50;;;16.10;29.90;;;;;;5044400;28;20283;-55
2022/06/20 06:24:23;;;;;;;6.53;1.47;;;16.20;1.00;;;;;;5046378;28;20309;-55
2022/06/20 06:26:57;;;;;;;4.50;1.50;;;16.10;1.00;;;;;;5049133;28;20289;-54
2022/06/20 06:29:41;;;;;;;6.23;1.60;;;16.00;33.00;;;;;;5048511;28;20199;-54
2022/06/20 06:32:28;;;;;;;6.30;1.70;;;16.10;1.00;;;;;;5049902;28;20605;-54
2022/06/20 06:35:06;;;;;;;6.00;1.73;;;16.00;1.00;;;;;;5050114;28;20299;-54
2022/06/20 06:37:41;;;;;;;6.07;1.60;;;16.10;1.00;;;;;;5049589;28;20214;-54
2022/06/20 06:40:23;;;;;;;3.10;1.40;;;16.00;1.00;;;;;;5037230;28;20233;-55
2022/06/20 06:42:54;;;;;;;5.53;1.50;;;16.40;1.00;;;;;;5046779;28;20635;-55
2022/06/20 06:45:24;;;;;;;3.30;1.70;;;16.30;1.00;;;;;;5035733;28;20208;-56
2022/06/20 06:48:13;;;;;;;8.40;2.30;;;16.30;1.00;;;;;;5036243;28;20242;-55
2022/06/20 06:50:45;;;;;;;3.30;1.57;;;16.50;1.00;;;;;;5047573;28;20396;-56
2022/06/20 06:53:21;;;;;;;5.97;1.63;;;16.60;1.00;;;;;;5045198;28;20194;-55
2022/06/20 06:55:53;;;;;;;6.47;1.60;;;16.80;1.00;;;;;;5038625;28;20245;-56
2022/06/20 06:58:35;;;;;;;7.20;1.80;;;16.50;1.00;;;;;;5051976;28;20697;-54
2022/06/20 07:01:25;;;;;;;5.63;2.30;;;16.40;1.00;;;;;;5041952;28;20293;-53
2022/06/20 07:03:58;;;;;;;8.93;2.23;;;16.70;1.00;;;;;;5041513;28;20214;-54
2022/06/20 07:06:40;;;;;;;4.63;1.47;;;17.20;1.00;;;;;;5041858;28;20572;-55
2022/06/20 07:09:32;;;;;;;6.10;1.83;;;17.00;1.00;;;;;;5050588;28;20282;-55
2022/06/20 07:12:19;;;;;;;4.30;1.73;;;17.30;1.00;;;;;;5046686;28;20642;-55
2022/06/20 07:15:01;;;;;;;3.83;1.70;;;17.50;1.00;;;;;;5062656;28;20312;-54
2022/06/20 07:17:31;;;;;;;5.97;2.03;;;16.80;1.00;;;;;;5044665;28;20273;-54
2022/06/20 07:20:01;;;;;;;4.90;1.50;;;16.90;1.00;;;;;;5046270;28;20222;-55
2022/06/20 07:22:36;;;;;;;3.37;1.70;;;17.40;1.00;;;;;;5050186;28;20203;-53
2022/06/20 07:25:04;;;;;;;8.97;1.80;;;17.20;1.00;;;;;;5045336;28;20305;-54
2022/06/20 07:27:40;;;;;;;5.57;1.70;;;17.00;1.00;;;;;;5044610;28;20215;-55
2022/06/20 07:30:18;;;;;;;4.47;2.00;;;17.10;1.00;;;;;;5050021;28;20256;-54
2022/06/20 07:32:54;;;;;;;10.00;2.33;;;17.50;1.00;;;;;;5046894;28;20923;-55
2022/06/20 07:35:37;;;;;;;6.07;1.90;;;18.00;1.00;;;;;;5046814;28;20533;-55
2022/06/20 07:38:20;;;;;;;7.70;2.20;;;18.10;1.00;;;;;;5044479;28;20213;-58
2022/06/20 07:41:37;;;;;;;3.23;1.63;;;18.30;1.00;;;;;;5035871;28;20570;-55
2022/06/20 07:44:14;;;;;;;7.37;1.60;;;18.70;1.00;;;;;;4957378;28;20749;-55
2022/06/20 07:46:48;;;;;;;6.13;2.27;;;18.50;1.00;;;;;;4956185;28;20222;-56
2022/06/20 07:49:32;;;;;;;5.13;1.73;;;18.20;1.00;;;;;;4956570;28;20918;-55
2022/06/20 07:52:22;;;;;;;5.60;2.07;;;18.10;1.00;;;;;;4954621;28;20203;-54
2022/06/20 07:54:56;;;;;;;6.83;2.00;;;18.00;1.00;;;;;;4953935;28;20281;-53
2022/06/20 07:57:30;;;;;;;5.30;1.60;;;18.20;1.00;;;;;;4951505;28;20215;-54
2022/06/20 08:00:28;;;;;;;5.23;1.67;;;18.20;1.00;;;;;;4940812;28;20240;-53
2022/06/20 08:03:08;;;;;;;4.37;1.43;;;18.60;1.00;;;;;;4943287;28;20207;-55
2022/06/20 08:05:46;;;;;;;5.30;1.80;;;19.00;1.00;;;;;;4955719;28;20221;-53
2022/06/20 08:08:37;;;;;;;8.57;2.10;;;19.10;1.00;;;;;;4954275;28;20214;-55
2022/06/20 08:11:08;;;;;;;4.53;1.80;;;19.60;1.00;;;;;;4952721;28;21755;-53
2022/06/20 08:13:53;;;;;;;4.17;1.57;;;19.80;1.00;;;;;;4956070;28;20627;-55
2022/06/20 08:16:26;;;;;;;4.87;1.90;;;19.80;1.00;;;;;;4942728;28;20703;-54
2022/06/20 08:18:53;;;;;;;5.43;1.80;;;19.20;1.00;;;;;;5031865;28;20294;-57
2022/06/20 08:21:33;;;;;;;2.83;1.80;;;18.70;1.00;;;;;;5045657;28;20248;-55
2022/06/20 08:24:15;;;;;;;6.73;2.07;;;18.50;1.00;;;;;;5050241;28;20646;-54
2022/06/20 08:27:08;;;;;;;3.10;2.10;;;18.20;1.00;;;;;;5049157;28;20256;-55
2022/06/20 08:29:41;;;;;;;6.40;1.93;;;18.30;1.00;;;;;;5047987;28;20208;-57
2022/06/20 08:32:17;;;;;;;5.20;2.03;;;18.40;1.00;;;;;;5045739;28;20705;-55
2022/06/20 08:35:02;;;;;;;8.87;2.73;;;18.90;1.00;;;;;;5040191;28;20227;-55
2022/06/20 08:37:44;;;;;;;6.07;2.10;;;18.50;1.00;;;;;;5046318;28;20238;-55
2022/06/20 08:40:35;;;;;;;8.47;2.10;;;18.00;1.00;;;;;;5045569;28;20236;-55
2022/06/20 08:43:37;;;;;;;4.20;1.97;;;17.90;1.00;;;;;;5041214;28;20252;-56
2022/06/20 08:46:38;;;;;;;6.30;1.70;;;17.90;1.00;;;;;;4960982;28;20238;-56
2022/06/20 08:49:42;;;;;;;6.37;1.70;;;18.30;1.00;;;;;;4953711;28;20645;-55
2022/06/20 08:52:11;;;;;;;4.30;2.00;;;19.10;1.00;;;;;;4956933;28;20627;-54
2022/06/20 08:55:02;;;;;;;4.27;1.90;;;19.90;1.00;;;;;;4952554;28;20211;-55
2022/06/20 08:57:42;;;;;;;8.43;2.03;;;20.30;1.00;;;;;;4952691;28;20216;-54
2022/06/20 09:00:50;;;;;;;7.27;2.50;;;20.50;1.00;;;;;;4953007;28;20246;-54
2022/06/20 09:03:40;;;;;;;4.80;1.77;;;20.20;1.00;;;;;;4956726;28;20253;-54
2022/06/20 09:06:13;;;;;;;5.87;2.10;;;20.30;1.00;;;;;;4956182;28;20768;-55
2022/06/20 09:08:57;;;;;;;7.87;2.40;;;19.80;1.00;;;;;;4954147;28;20222;-54
2022/06/20 09:11:48;;;;;;;15.07;5.40;;;19.50;1.00;;;;;;4955242;28;20694;-53
2022/06/20 09:14:38;;;;;;;6.33;2.30;;;19.70;1.00;;;;;;4954465;28;20261;-54
2022/06/20 09:17:22;;;;;;;6.40;2.10;;;20.40;1.00;;;;;;4958530;28;20230;-55
2022/06/20 09:20:13;;;;;;;6.20;2.10;;;20.20;1.00;;;;;;4990912;28;20733;-55
2022/06/20 09:23:00;;;;;;;7.47;2.50;;;20.20;1.00;;;;;;5047768;28;20204;-55
2022/06/20 09:25:51;;;;;;;5.70;2.27;;;20.30;1.00;;;;;;5036113;28;20748;-55
2022/06/20 09:28:33;;;;;;;5.73;2.60;;;19.70;1.00;;;;;;5046744;28;21218;-55
2022/06/20 09:31:11;;;;;;;9.37;2.67;;;19.50;1.00;;;;;;5051387;28;20263;-55
2022/06/20 09:34:03;;;;;;;5.77;2.37;;;19.10;1.00;;;;;;5047587;28;20231;-55
2022/06/20 09:36:52;;;;;;;5.97;2.20;;;19.50;1.00;;;;;;5048178;28;20238;-55
2022/06/20 09:39:34;;;;;;;4.20;1.90;;;19.80;1.00;;;;;;5049111;28;20355;-55
2022/06/20 09:42:25;;;;;;;4.10;2.10;;;19.90;1.00;;;;;;5034799;28;20197;-54
2022/06/20 09:45:12;;;;;;;8.83;2.50;;;20.10;99.90;;;;;;5049213;28;20246;-56
2022/06/20 09:48:14;;;;;;;7.67;2.00;;;20.10;99.90;;;;;;5051856;28;20275;-55
2022/06/20 09:51:28;;;;;;;5.50;1.97;;;20.80;99.90;;;;;;5046493;28;20657;-55
2022/06/20 09:53:59;;;;;;;8.23;2.53;;;20.60;99.90;;;;;;5050993;28;20300;-54
2022/06/20 09:56:44;;;;;;;8.80;2.73;;;20.60;99.90;;;;;;5051700;28;20230;-54
2022/06/20 09:59:27;;;;;;;6.63;2.47;;;20.40;99.90;;;;;;5046648;28;20646;-54
2022/06/20 10:02:04;;;;;;;8.63;2.10;;;20.30;99.90;;;;;;5054562;28;20201;-54
2022/06/20 10:04:43;;;;;;;7.20;1.77;;;20.20;99.90;;;;;;5050334;28;20288;-55
2022/06/20 10:07:41;;;;;;;5.80;2.37;;;20.50;99.90;;;;;;5047256;28;20657;-54
2022/06/20 10:10:17;;;;;;;4.90;1.80;;;21.10;99.90;;;;;;5047315;28;20294;-54
2022/06/20 10:12:59;;;;;;;7.77;2.00;;;21.80;99.90;;;;;;5049967;28;20309;-56
2022/06/20 10:15:47;;;;;;;8.70;3.13;;;22.70;99.90;;;;;;5050487;28;20205;-54
2022/06/20 10:18:29;;;;;;;7.03;1.80;;;23.00;99.90;;;;;;5047797;28;20206;-55
2022/06/20 10:21:19;;;;;;;5.00;1.77;;;23.40;99.90;;;;;;5046089;28;20564;-55
2022/06/20 10:24:24;;;;;;;5.50;2.17;;;23.50;99.90;;;;;;5044330;28;20234;-54
2022/06/20 10:27:09;;;;;;;4.03;1.67;;;23.60;99.90;;;;;;5047089;28;20205;-55
2022/06/20 10:30:02;;;;;;;4.83;1.77;;;23.60;99.90;;;;;;5048621;28;20266;-57
2022/06/20 10:32:47;;;;;;;8.37;2.00;;;22.50;99.90;;;;;;5052285;28;20639;-56
2022/06/20 10:35:17;;;;;;;11.33;2.13;;;22.30;99.90;;;;;;5048994;28;20224;-55
2022/06/20 10:38:19;;;;;;;3.90;1.80;;;22.70;99.90;;;;;;5050845;28;20383;-55
2022/06/20 10:41:08;;;;;;;6.10;1.90;;;22.00;99.90;;;;;;5003371;28;20212;-55
2022/06/20 10:43:49;;;;;;;4.70;1.80;;;22.70;99.90;;;;;;5043605;28;20299;-55
2022/06/20 10:46:33;;;;;;;2.70;1.60;;;22.40;99.90;;;;;;5045423;28;20206;-56
2022/06/20 10:49:23;;;;;;;4.70;1.40;;;22.20;99.90;;;;;;5048402;28;20227;-54
2022/06/20 10:52:01;;;;;;;7.37;1.90;;;21.40;99.90;;;;;;5045746;28;20253;-55
2022/06/20 10:54:29;;;;;;;5.63;1.87;;;21.80;99.90;;;;;;5045940;28;20204;-55
2022/06/20 10:57:01;;;;;;;4.43;1.60;;;22.60;99.90;;;;;;5042920;28;20674;-54
2022/06/20 10:59:58;;;;;;;4.17;1.53;;;23.70;99.90;;;;;;5044528;28;20267;-55
2022/06/20 11:02:50;;;;;;;4.03;2.00;;;24.70;1.00;;;;;;5048916;28;20200;-54
2022/06/20 11:05:20;;;;;;;3.37;1.60;;;24.70;1.00;;;;;;5036081;28;20671;-55
2022/06/20 11:07:52;;;;;;;4.30;1.87;;;24.00;99.90;;;;;;5035460;28;20482;-55
2022/06/20 11:10:38;;;;;;;5.23;1.93;;;24.50;1.00;;;;;;5050873;28;20231;-56
2022/06/20 11:13:22;;;;;;;3.97;2.07;;;22.70;94.30;;;;;;5049220;28;20609;-56
2022/06/20 11:16:12;;;;;;;4.60;1.57;;;21.80;99.90;;;;;;5048114;28;20228;-56
2022/06/20 11:18:59;;;;;;;3.27;1.87;;;23.20;99.90;;;;;;5046002;28;20320;-55
2022/06/20 11:21:37;;;;;;;8.30;1.70;;;22.00;99.90;;;;;;5047293;28;20291;-56
2022/06/20 11:24:28;;;;;;;3.53;1.67;;;23.10;99.90;;;;;;5046618;28;20203;-55
2022/06/20 11:27:02;;;;;;;4.70;1.40;;;24.70;1.00;;;;;;5047992;28;20994;-54
2022/06/20 11:30:09;;;;;;;3.73;1.60;;;23.50;99.90;;;;;;5036758;28;20221;-55
2022/06/20 11:33:06;;;;;;;4.37;1.53;;;22.40;99.90;;;;;;5031392;28;20195;-55
2022/06/20 11:35:43;;;;;;;2.20;1.23;;;23.40;99.90;;;;;;5039889;28;20204;-55
2022/06/20 11:38:25;;;;;;;4.17;1.17;;;24.60;26.40;;;;;;5042111;28;20294;-55
2022/06/20 11:41:12;;;;;;;3.73;1.37;;;25.90;99.90;;;;;;5033721;28;20207;-55
2022/06/20 11:44:06;;;;;;;7.80;1.73;;;25.50;99.90;;;;;;5031128;28;20311;-57
2022/06/20 11:46:48;;;;;;;6.90;1.57;;;24.40;99.90;;;;;;5047700;28;20208;-56
2022/06/20 11:49:24;;;;;;;6.57;1.90;;;23.60;1.00;;;;;;5051131;28;20234;-55
2022/06/20 11:52:15;;;;;;;4.10;1.67;;;22.00;1.00;;;;;;5034806;28;20259;-55
2022/06/20 11:55:12;;;;;;;7.20;2.20;;;21.90;1.00;;;;;;5047534;28;20201;-56
2022/06/20 11:57:53;;;;;;;6.57;1.50;;;23.60;1.00;;;;;;5048060;28;20266;-55
2022/06/20 12:00:23;;;;;;;3.60;1.60;;;23.40;1.00;;;;;;5045709;28;20215;-56
2022/06/20 12:03:16;;;;;;;7.33;1.70;;;22.60;1.00;;;;;;5040810;28;20352;-56
2022/06/20 12:05:52;;;;;;;6.53;1.80;;;22.30;1.00;;;;;;5040891;28;20740;-55
2022/06/20 12:08:40;;;;;;;4.57;1.60;;;22.30;1.00;;;;;;5049750;28;20256;-55
2022/06/20 12:11:44;;;;;;;3.83;1.53;;;22.30;1.00;;;;;;5047916;28;20211;-55
2022/06/20 12:14:44;;;;;;;6.13;1.93;;;22.00;1.00;;;;;;5046914;28;20252;-57
2022/06/20 12:17:26;;;;;;;10.93;1.63;;;23.30;1.00;;;;;;5035026;28;20578;-56
2022/06/20 12:25:48;;;;;;;5.40;1.50;;;24.50;1.00;;;;;;5042549;28;20676;-55
2022/06/20 12:28:24;;;;;;;9.73;1.50;;;24.10;1.00;;;;;;5043655;28;20268;-55
2022/06/20 12:31:11;;;;;;;13.13;1.60;;;24.00;1.00;;;;;;5037041;28;20226;-55
2022/06/20 12:33:48;;;;;;;5.00;1.43;;;25.00;32.60;;;;;;5036059;28;20932;-55
2022/06/20 12:36:37;;;;;;;4.23;1.50;;;24.80;99.90;;;;;;5034620;28;20291;-54
2022/06/20 12:39:22;;;;;;;1.03;0.97;;;25.00;99.90;;;;;;5027894;28;20308;-55
2022/06/20 12:41:55;;;;;;;4.27;1.53;;;25.10;99.90;;;;;;5037357;28;20615;-54
2022/06/20 12:44:58;;;;;;;4.20;1.53;;;25.80;99.90;;;;;;5046629;28;20200;-56
2022/06/20 12:47:48;;;;;;;5.50;1.73;;;24.30;99.90;;;;;;4986821;28;20909;-55
2022/06/20 12:50:47;;;;;;;5.13;1.90;;;24.20;57.70;;;;;;5042592;28;20257;-56
2022/06/20 12:53:46;;;;;;;6.20;1.80;;;24.60;99.90;;;;;;5035623;28;20206;-54
2022/06/20 12:56:24;;;;;;;2.27;1.60;;;23.60;99.90;;;;;;5043881;28;20234;-56
2022/06/20 12:59:21;;;;;;;3.97;1.33;;;22.60;1.00;;;;;;5051691;28;20279;-54
2022/06/20 13:02:06;;;;;;;4.20;1.90;;;23.60;1.00;;;;;;5036876;28;20213;-54
2022/06/20 13:04:47;;;;;;;3.13;1.60;;;23.20;1.00;;;;;;5054289;28;20211;-56
2022/06/20 13:07:46;;;;;;;6.17;1.83;;;22.50;1.00;;;;;;5035537;28;20208;-55
2022/06/20 13:10:43;;;;;;;3.37;1.70;;;23.30;1.00;;;;;;5044474;28;20230;-56
2022/06/20 13:13:29;;;;;;;3.80;1.80;;;23.10;1.00;;;;;;5045534;28;20321;-55
2022/06/20 13:15:59;;;;;;;5.27;2.00;;;22.80;1.00;;;;;;5045000;28;20207;-57
2022/06/20 13:18:50;;;;;;;3.97;1.80;;;22.60;4.00;;;;;;5053713;28;20207;-56
2022/06/20 13:21:22;;;;;;;4.87;2.00;;;21.90;8.90;;;;;;5049582;28;20662;-54
2022/06/20 13:24:21;;;;;;;7.00;2.40;;;21.20;33.80;;;;;;5053802;28;20215;-54
2022/06/20 13:27:07;;;;;;;4.07;1.77;;;21.30;20.20;;;;;;5039807;28;20207;-56
2022/06/20 13:30:02;;;;;;;4.43;1.80;;;21.10;37.60;;;;;;5055158;28;20218;-54
2022/06/20 13:33:03;;;;;;;5.77;1.90;;;21.30;50.60;;;;;;5050820;28;20287;-55
2022/06/20 13:35:48;;;;;;;5.50;2.07;;;22.50;27.20;;;;;;5053531;28;20314;-55
2022/06/20 13:38:22;;;;;;;4.33;2.10;;;23.30;1.00;;;;;;5054744;28;20336;-56
2022/06/20 13:41:12;;;;;;;7.70;3.23;;;22.80;1.00;;;;;;5050008;28;20640;-56
2022/06/20 13:43:57;;;;;;;11.80;2.10;;;22.20;40.50;;;;;;5038914;28;20608;-56
2022/06/20 13:46:49;;;;;;;6.90;1.90;;;21.90;32.20;;;;;;5047818;28;20218;-55
2022/06/20 13:49:23;;;;;;;4.47;1.43;;;21.10;37.10;;;;;;5050258;28;20315;-56
2022/06/20 13:52:06;;;;;;;5.07;2.10;;;22.10;51.30;;;;;;5051003;28;20200;-55
2022/06/20 13:54:56;;;;;;;4.47;1.97;;;21.90;34.50;;;;;;5049093;28;20231;-54
2022/06/20 13:57:40;;;;;;;5.27;1.83;;;21.20;53.00;;;;;;5050827;28;20211;-55
2022/06/20 14:00:16;;;;;;;7.20;2.43;;;21.20;69.50;;;;;;5039903;28;20215;-55
2022/06/20 14:02:49;;;;;;;6.20;1.77;;;20.70;85.90;;;;;;5050515;28;20264;-56
2022/06/20 14:05:23;;;;;;;6.37;1.90;;;20.90;62.30;;;;;;5039405;28;20658;-55
2022/06/20 14:08:01;;;;;;;11.13;2.00;;;21.00;73.00;;;;;;5051578;28;20720;-56
2022/06/20 14:10:52;;;;;;;8.70;2.20;;;21.60;36.60;;;;;;5053508;28;20269;-56
2022/06/20 14:13:26;;;;;;;8.83;2.00;;;21.60;41.50;;;;;;5064168;28;20250;-56